Time;durP1;ratioP1;P1;durP2;ratioP2;P2;SDS_P1;SDS_P2;PMS_P1;PMS_P2;Temp;Humidity;BMP_temperature;BMP_pressure;BME280_temperature;BME280_humidity;BME280_pressure;Samples;Min_cycle;Max_cycle;Signal;HPM_P1;HPM_P2
2022/02/07 00:00:40;;;;;;;2.20;1.00;;;;;;;3.21;87.65;98602.42;1737949;80;21473;-75
2022/02/07 00:03:38;;;;;;;2.98;1.30;;;;;;;3.21;87.65;98604.98;1745615;81;21377;-75
2022/02/07 00:06:10;;;;;;;2.65;1.20;;;;;;;3.21;87.68;98599.03;1731706;81;21080;-76
2022/02/07 00:08:54;;;;;;;3.42;0.80;;;;;;;3.22;87.67;98599.44;1736002;82;21065;-75
2022/02/07 00:11:39;;;;;;;3.17;1.17;;;;;;;3.23;87.72;98601.12;1735667;82;21045;-75
2022/02/07 00:14:24;;;;;;;2.60;1.17;;;;;;;3.24;87.70;98606.63;1740836;80;20965;-75
2022/02/07 00:17:08;;;;;;;2.60;1.22;;;;;;;3.24;87.71;98601.09;1711900;82;21051;-76
2022/02/07 00:19:53;;;;;;;4.65;1.30;;;;;;;3.27;87.75;98608.70;1737265;81;21433;-76
2022/02/07 00:22:38;;;;;;;1.98;0.93;;;;;;;3.29;87.77;98599.30;1736897;82;21024;-76
2022/02/07 00:25:23;;;;;;;3.08;1.12;;;;;;;3.32;87.75;98599.23;1735674;82;21057;-75
2022/02/07 00:28:07;;;;;;;1.67;0.82;;;;;;;3.35;87.78;98595.78;1738751;82;21041;-75
2022/02/07 00:30:52;;;;;;;2.85;0.93;;;;;;;3.39;87.77;98596.56;1725163;82;21034;-75
2022/02/07 00:33:36;;;;;;;2.47;1.40;;;;;;;3.39;87.74;98589.74;1735549;82;21092;-75
2022/02/07 00:36:21;;;;;;;5.55;1.22;;;;;;;3.41;87.71;98584.61;1735640;82;21550;-75
2022/02/07 00:39:12;;;;;;;4.03;1.12;;;;;;;3.43;87.75;98584.14;1735589;82;21037;-75
2022/02/07 00:41:59;;;;;;;;;;;;;;;3.43;87.74;98582.42;1739962;82;21560;-75
2022/02/07 00:44:38;;;;;;;;;;;;;;;3.46;87.78;98590.47;1709926;82;20196;-75
2022/02/07 00:47:23;;;;;;;2.85;1.17;;;;;;;3.47;87.81;98585.77;1737057;81;20479;-75
2022/02/07 00:50:08;;;;;;;6.67;1.42;;;;;;;3.50;87.76;98586.98;1740373;81;21035;-76
2022/02/07 00:52:52;;;;;;;4.22;1.42;;;;;;;3.50;87.76;98588.25;1735150;81;21045;-76
2022/02/07 00:55:37;;;;;;;3.20;1.27;;;;;;;3.52;87.83;98582.24;1744775;81;21183;-75
2022/02/07 00:58:23;;;;;;;7.08;1.60;;;;;;;3.53;87.81;98577.97;1739631;81;21080;-76
2022/02/07 01:01:07;;;;;;;2.92;1.25;;;;;;;3.55;87.83;98579.62;1750222;81;26472;-76
2022/02/07 01:03:52;;;;;;;3.45;1.50;;;;;;;3.57;87.80;98583.43;1738586;81;21100;-75
2022/02/07 01:06:36;;;;;;;5.17;1.70;;;;;;;3.56;87.79;98574.92;1745002;80;21081;-75
2022/02/07 01:09:27;;;;;;;5.83;2.10;;;;;;;3.56;87.74;98578.75;1749389;80;21053;-75
2022/02/07 01:12:19;;;;;;;3.60;2.00;;;;;;;3.55;87.71;98586.45;1765444;80;21080;-75
2022/02/07 01:48:59;;;;;;;1.12;0.40;;;;;;;3.20;87.75;98575.20;1597286;88;22334;-76
2022/02/07 01:51:52;;;;;;;3.33;0.53;;;;;;;3.19;87.74;98573.95;1574390;90;21262;-75
2022/02/07 01:57:14;;;;;;;2.35;0.60;;;;;;;3.17;87.77;98577.81;1690495;82;21655;-75
2022/02/07 01:59:58;;;;;;;1.42;0.55;;;;;;;3.16;87.78;98562.52;1729525;82;21020;-76
2022/02/07 02:02:46;;;;;;;1.75;0.50;;;;;;;3.15;87.78;98564.67;1740396;81;20984;-75
2022/02/07 02:05:36;;;;;;;1.12;0.30;;;;;;;3.14;87.75;98561.27;1740031;82;20973;-75
2022/02/07 02:08:18;;;;;;;3.90;1.12;;;;;;;3.12;87.78;98554.08;1735398;81;21030;-76
2022/02/07 02:11:02;;;;;;;1.12;0.55;;;;;;;3.12;87.76;98556.63;1727344;82;21052;-75
2022/02/07 02:37:44;;;;;;;2.00;0.60;;;;;;;3.12;87.88;98582.17;1734484;81;21025;-74
2022/02/07 02:46:09;;;;;;;1.35;0.70;;;;;;;3.10;87.85;98595.86;1722955;82;21038;-75
2022/02/07 02:49:00;;;;;;;1.85;0.80;;;;;;;3.10;87.85;98615.02;1701521;83;21656;-75
2022/02/07 02:51:40;;;;;;;2.33;1.00;;;;;;;3.08;87.85;98618.03;1721626;82;21057;-75
2022/02/07 02:54:24;;;;;;;0.50;0.50;;;;;;;3.06;87.87;98633.81;1730203;82;21092;-75
2022/02/07 02:57:08;;;;;;;0.20;0.10;;;;;;;3.02;87.76;98638.56;1730062;82;21060;-75
2022/02/07 02:59:53;;;;;;;1.90;1.32;;;;;;;2.92;87.64;98637.88;1729971;82;21608;-76
2022/02/07 03:02:38;;;;;;;0.57;0.20;;;;;;;2.84;87.68;98643.54;1727140;82;21061;-76
2022/02/07 03:05:22;;;;;;;0.70;0.70;;;;;;;2.80;87.71;98655.50;1730566;82;20981;-75
2022/02/07 03:08:07;;;;;;;0.75;0.20;;;;;;;2.75;87.68;98659.00;1730113;81;21057;-75
2022/02/07 03:13:49;;;;;;;0.35;0.20;;;;;;;2.64;87.75;98666.39;1732571;81;21108;-75
2022/02/07 03:16:38;;;;;;;0.93;0.47;;;;;;;2.60;87.68;98671.12;1729343;82;20946;-76
2022/02/07 03:19:22;;;;;;;1.05;0.42;;;;;;;2.57;87.73;98680.56;1732091;82;20949;-75
2022/02/07 03:22:08;;;;;;;1.40;0.70;;;;;;;2.53;87.75;98679.77;1720134;82;20953;-76
2022/02/07 03:24:52;;;;;;;1.72;0.70;;;;;;;2.50;87.73;98694.27;1731905;82;20985;-76
2022/02/07 03:27:36;;;;;;;0.40;0.40;;;;;;;2.47;87.79;98704.09;1729923;82;21093;-76
2022/02/07 03:30:21;;;;;;;0.82;0.30;;;;;;;2.45;87.80;98703.70;1730120;82;21077;-75
2022/02/07 03:33:06;;;;;;;0.40;0.30;;;;;;;2.44;87.82;98718.59;1723890;82;21451;-75
2022/02/07 03:35:51;;;;;;;0.40;0.20;;;;;;;2.41;87.81;98716.92;1729909;82;21053;-75
2022/02/07 03:38:36;;;;;;;0.40;0.30;;;;;;;2.41;87.80;98718.20;1730121;82;21694;-75
2022/02/07 03:41:21;;;;;;;0.42;0.20;;;;;;;2.38;87.80;98730.99;1729946;82;21049;-75
2022/02/07 03:44:06;;;;;;;0.28;0.10;;;;;;;2.37;87.80;98739.94;1729862;82;21092;-75
2022/02/07 03:46:51;;;;;;;0.72;0.10;;;;;;;2.33;87.78;98735.31;1729379;82;21640;-76
2022/02/07 03:49:35;;;;;;;1.75;0.13;;;;;;;2.32;87.79;98743.83;1730082;81;21520;-75
2022/02/07 03:52:21;;;;;;;0.47;0.20;;;;;;;2.31;87.82;98749.79;1718964;82;22254;-75
2022/02/07 03:55:07;;;;;;;0.30;0.15;;;;;;;2.29;87.82;98757.89;1730265;82;21116;-75
2022/02/07 03:57:52;;;;;;;0.40;0.00;;;;;;;2.29;87.84;98765.54;1731071;82;20969;-75
2022/02/07 04:00:37;;;;;;;0.00;0.00;;;;;;;2.27;87.76;98769.81;1730037;82;21041;-75
2022/02/07 04:03:27;;;;;;;0.70;0.30;;;;;;;2.26;87.81;98771.95;1730329;81;21465;-75
2022/02/07 04:06:17;;;;;;;0.30;0.17;;;;;;;2.24;87.84;98776.22;1732351;81;21069;-75
2022/02/07 04:09:05;;;;;;;0.75;0.20;;;;;;;2.24;87.85;98781.33;1735365;81;20930;-75
2022/02/07 04:11:51;;;;;;;0.72;0.10;;;;;;;2.25;87.85;98780.46;1736793;81;20908;-74
2022/02/07 04:14:32;;;;;;;2.80;0.20;;;;;;;2.26;87.87;98808.49;1738735;81;20938;-75
2022/02/07 04:17:22;;;;;;;0.20;0.10;;;;;;;2.28;87.91;98808.48;1728544;81;21433;-75
2022/02/07 04:20:03;;;;;;;;;;;;;;;2.29;87.87;98818.66;1737758;81;20938;-75
2022/02/07 04:22:48;;;;;;;0.25;0.10;;;;;;;2.28;87.86;98824.63;1729661;82;20134;-75
2022/02/07 04:25:33;;;;;;;0.68;0.20;;;;;;;2.29;87.87;98831.41;1732449;82;20946;-75
2022/02/07 04:28:18;;;;;;;0.60;0.30;;;;;;;2.29;87.87;98836.94;1732575;82;21572;-76
2022/02/07 04:31:02;;;;;;;0.93;0.25;;;;;;;2.29;87.86;98851.81;1739978;81;21362;-75
2022/02/07 04:33:47;;;;;;;0.10;0.10;;;;;;;2.32;87.89;98857.31;1744338;81;21850;-75
2022/02/07 04:36:31;;;;;;;0.93;0.35;;;;;;;2.31;87.84;98869.65;1760443;81;20977;-75
2022/02/07 04:39:16;;;;;;;2.05;0.95;;;;;;;2.31;87.88;98873.47;1740510;80;21041;-75
2022/02/07 04:42:05;;;;;;;2.35;1.30;;;;;;;2.31;87.89;98890.89;1730260;82;21625;-75
2022/02/07 04:50:40;;;;;;;3.08;0.42;;;;;;;2.32;87.93;98901.51;1720931;82;21517;-74
2022/02/07 04:53:35;;;;;;;0.70;0.60;;;;;;;2.33;87.92;98910.00;1730560;82;22445;-75
2022/02/07 05:01:53;;;;;;;1.80;1.52;;;;;;;2.37;87.99;98935.05;1716038;81;21045;-74
2022/02/07 05:04:41;;;;;;;2.30;0.80;;;;;;;2.39;87.97;98941.83;1729827;82;21030;-75
2022/02/07 05:16:29;;;;;;;0.35;0.30;;;;;;;2.40;87.95;98985.60;1720613;82;21047;-75
2022/02/07 05:19:12;;;;;;;0.60;0.60;;;;;;;2.40;87.94;98988.58;1682252;83;21051;-75
2022/02/07 05:21:57;;;;;;;0.47;0.30;;;;;;;2.40;87.96;99000.91;1663895;84;21390;-75
2022/02/07 05:24:41;;;;;;;1.12;0.40;;;;;;;2.41;87.93;99011.52;1681399;83;21017;-75
2022/02/07 05:27:26;;;;;;;0.75;0.23;;;;;;;2.40;87.96;99017.48;1671190;85;21100;-75
2022/02/07 05:30:12;;;;;;;0.40;0.30;;;;;;;2.39;87.96;99022.17;1661773;84;21319;-75
2022/02/07 05:32:56;;;;;;;0.30;0.20;;;;;;;2.39;87.96;99036.62;1684889;85;21048;-75
2022/02/07 05:35:41;;;;;;;0.98;0.40;;;;;;;2.38;87.94;99042.16;1681234;83;21040;-75
2022/02/07 05:38:25;;;;;;;0.25;0.20;;;;;;;2.36;87.95;99051.95;1681731;85;21120;-75
2022/02/07 05:41:10;;;;;;;0.35;0.28;;;;;;;2.37;87.91;99065.97;1681405;84;21456;-75
2022/02/07 05:43:55;;;;;;;0.28;0.20;;;;;;;2.35;87.92;99075.77;1670091;85;20953;-75
2022/02/07 05:46:39;;;;;;;1.85;0.17;;;;;;;2.31;87.92;99088.55;1679084;83;21077;-75
2022/02/07 05:49:24;;;;;;;0.25;0.17;;;;;;;2.31;87.94;99094.92;1665939;85;21659;-75
2022/02/07 05:52:09;;;;;;;0.40;0.03;;;;;;;2.30;87.93;99095.77;1664549;84;21116;-75
2022/02/07 05:54:53;;;;;;;0.90;0.00;;;;;;;2.28;87.90;99108.97;1677172;83;21093;-77
2022/02/07 05:57:38;;;;;;;0.62;0.10;;;;;;;2.27;87.92;99115.35;1677234;84;21053;-77
2022/02/07 06:00:23;;;;;;;0.62;0.28;;;;;;;2.23;87.85;99114.53;1674623;85;21549;-77
2022/02/07 06:03:08;;;;;;;0.20;0.10;;;;;;;2.19;87.84;99126.88;1676103;85;22003;-77
2022/02/07 06:05:52;;;;;;;0.10;0.10;;;;;;;2.17;87.90;99134.96;1671177;83;21065;-78
2022/02/07 06:08:37;;;;;;;0.30;0.20;;;;;;;2.14;87.88;99156.66;1683681;85;21090;-77
2022/02/07 06:11:21;;;;;;;1.12;0.30;;;;;;;2.11;87.86;99163.05;1687701;84;20968;-77
2022/02/07 06:14:06;;;;;;;0.30;0.15;;;;;;;2.08;87.87;99170.70;1689477;83;21599;-79
2022/02/07 06:16:51;;;;;;;0.15;0.10;;;;;;;2.05;87.92;99185.20;1695363;83;21040;-79
2022/02/07 06:19:35;;;;;;;0.68;0.20;;;;;;;2.03;87.91;99196.68;1689893;83;21017;-79
2022/02/07 06:22:20;;;;;;;0.60;0.20;;;;;;;2.01;87.93;99207.73;1680623;83;21309;-79
2022/02/07 06:25:05;;;;;;;0.33;0.28;;;;;;;1.98;87.90;99211.15;1687236;84;21061;-76
2022/02/07 06:27:51;;;;;;;0.50;0.20;;;;;;;1.96;87.94;99222.63;1664856;86;21445;-78
2022/02/07 06:30:35;;;;;;;0.85;0.50;;;;;;;1.96;87.98;99233.24;1687774;84;20975;-77
2022/02/07 06:33:19;;;;;;;0.85;0.45;;;;;;;1.94;87.92;99243.88;1685347;84;20949;-77
2022/02/07 06:36:04;;;;;;;0.30;0.30;;;;;;;1.94;88.00;99259.17;1697905;83;21326;-77
2022/02/07 06:38:49;;;;;;;0.53;0.45;;;;;;;1.92;87.99;99264.27;1676808;84;21391;-77
2022/02/07 06:41:33;;;;;;;0.62;0.50;;;;;;;1.92;87.99;99276.16;1680993;84;20909;-77
2022/02/07 06:44:18;;;;;;;0.40;0.30;;;;;;;1.93;88.01;99274.04;1691104;84;21762;-77
2022/02/07 06:47:03;;;;;;;0.95;0.60;;;;;;;1.94;88.06;99288.48;1676109;84;20938;-77
2022/02/07 06:49:48;;;;;;;0.50;0.50;;;;;;;1.96;88.06;99286.77;1666127;83;20941;-77
2022/02/07 06:52:32;;;;;;;0.93;0.93;;;;;;;1.97;88.05;99297.39;1689650;83;21591;-77
2022/02/07 06:55:17;;;;;;;1.22;0.78;;;;;;;1.98;88.03;99299.09;1684840;84;21048;-77
2022/02/07 06:58:02;;;;;;;1.07;0.60;;;;;;;1.99;88.06;99309.71;1680600;83;21549;-77
2022/02/07 07:00:47;;;;;;;1.10;0.85;;;;;;;2.00;88.07;99317.78;1678648;83;21113;-77
2022/02/07 07:03:34;;;;;;;2.67;0.68;;;;;;;2.02;88.08;99324.15;1681018;83;21076;-77
2022/02/07 07:06:19;;;;;;;1.07;0.90;;;;;;;2.04;88.07;99330.94;1705358;83;21092;-78
2022/02/07 07:09:03;;;;;;;1.32;0.90;;;;;;;2.07;88.10;99337.73;1688469;83;21033;-77
2022/02/07 07:11:48;;;;;;;1.05;0.80;;;;;;;2.09;88.09;99347.05;1672638;83;21042;-77
2022/02/07 07:14:50;;;;;;;5.97;0.95;;;;;;;2.12;88.09;99344.91;1658135;85;21001;-77
2022/02/07 07:17:29;;;;;;;3.22;1.98;;;;;;;2.15;88.11;99350.86;1661642;84;21649;-78
2022/02/07 07:20:14;;;;;;;2.92;1.60;;;;;;;2.19;88.14;99366.57;1674771;84;21037;-78
2022/02/07 07:23:01;;;;;;;5.70;1.75;;;;;;;2.20;88.09;99369.55;1673891;85;21519;-76
2022/02/07 07:25:46;;;;;;;2.58;1.37;;;;;;;2.23;88.09;99386.55;1661877;85;21088;-77
2022/02/07 07:28:31;;;;;;;4.27;1.80;;;;;;;2.25;88.09;99395.89;1668195;85;20918;-76
2022/02/07 07:31:17;;;;;;;5.28;1.87;;;;;;;2.26;88.04;99399.29;1662648;85;21408;-77
2022/02/07 07:34:02;;;;;;;4.58;2.12;;;;;;;2.27;88.05;99409.91;1676178;84;21485;-76
2022/02/07 07:36:47;;;;;;;2.90;1.27;;;;;;;2.28;88.13;99407.36;1689572;84;21439;-77
2022/02/07 07:39:31;;;;;;;4.87;1.10;;;;;;;2.30;88.09;99415.01;1654256;84;21316;-77
2022/02/07 07:42:16;;;;;;;3.30;1.05;;;;;;;2.31;88.03;99423.08;1664508;85;21025;-77
2022/02/07 07:45:01;;;;;;;2.10;1.00;;;;;;;2.32;88.01;99422.23;1712999;82;21575;-76
2022/02/07 07:47:48;;;;;;;7.15;1.30;;;;;;;2.33;88.02;99429.87;1724285;82;21124;-77
2022/02/07 07:50:49;;;;;;;1.80;0.78;;;;;;;2.38;88.05;99440.08;1722507;82;21093;-78
2022/02/07 08:02:35;;;;;;;4.83;1.70;;;;;;;2.54;88.06;99451.10;1718950;81;21096;-76
2022/02/07 08:05:40;;;;;;;5.03;1.75;;;;;;;2.55;88.01;99463.86;1712369;81;21222;-76
2022/02/07 08:08:19;;;;;;;2.47;1.37;;;;;;;2.59;88.03;99471.93;1725917;81;21072;-78
2022/02/07 08:11:03;;;;;;;5.12;2.00;;;;;;;2.61;88.00;99479.12;1710398;81;21088;-77
2022/02/07 08:13:42;;;;;;;3.10;1.20;;;;;;;2.66;88.01;99489.32;1729457;80;21181;-76
2022/02/07 08:16:27;;;;;;;;;;;;;;;2.71;88.00;99491.44;1739100;80;20960;-78
2022/02/07 08:19:12;;;;;;;5.05;1.65;;;;;;;2.76;87.96;99499.94;1724142;82;20136;-76
2022/02/07 08:21:57;;;;;;;7.15;2.15;;;;;;;2.81;87.96;99506.30;1724808;82;21426;-77
2022/02/07 08:24:43;;;;;;;11.45;1.72;;;;;;;2.87;87.99;99517.78;1732752;82;20914;-77
2022/02/07 08:27:30;;;;;;;5.20;1.50;;;;;;;2.89;87.94;99523.73;1707874;82;21028;-76
2022/02/07 08:30:14;;;;;;;5.67;1.90;;;;;;;2.89;87.96;99532.66;1720771;80;21037;-76
2022/02/07 08:33:01;;;;;;;4.22;1.35;;;;;;;2.92;87.96;99545.42;1734511;80;21041;-76
2022/02/07 08:35:45;;;;;;;;;;;;;;;2.94;87.92;99559.04;1724825;80;21049;-76
2022/02/07 08:38:30;;;;;;;6.55;1.95;;;;;;;2.97;87.95;99563.71;1719165;82;20250;-78
2022/02/07 08:41:14;;;;;;;7.85;2.37;;;;;;;3.03;88.00;99567.11;1734671;80;21099;-76
2022/02/07 08:43:59;;;;;;;5.67;2.22;;;;;;;3.08;88.04;99573.05;1710909;82;21037;-77
2022/02/07 08:46:43;;;;;;;9.55;4.08;;;;;;;3.13;88.05;99583.65;1709953;82;20997;-76
2022/02/07 08:49:28;;;;;;;7.47;2.75;;;;;;;3.15;88.00;99591.31;1724038;82;21548;-77
2022/02/07 08:52:14;;;;;;;7.67;2.27;;;;;;;3.18;88.06;99603.64;1715999;82;21112;-76
2022/02/07 08:54:58;;;;;;;4.87;1.70;;;;;;;3.24;88.10;99597.67;1729929;81;20953;-76
2022/02/07 08:57:46;;;;;;;3.70;1.10;;;;;;;3.26;88.07;99594.69;1713973;80;20902;-76
2022/02/07 09:06:34;;;;;;;2.67;1.10;;;;;;;3.35;88.04;99615.09;1723884;82;21500;-75
2022/02/07 09:09:19;;;;;;;2.25;0.90;;;;;;;3.38;88.05;99628.30;1726822;82;21785;-75
2022/02/07 09:12:04;;;;;;;6.37;1.07;;;;;;;3.41;88.01;99630.84;1732930;82;20918;-75
2022/02/07 09:15:06;;;;;;;3.40;0.98;;;;;;;3.41;87.99;99627.86;1721309;82;20945;-77
2022/02/07 09:17:41;;;;;;;5.62;1.05;;;;;;;3.43;87.97;99638.08;1727973;81;20962;-75
2022/02/07 09:20:26;;;;;;;2.22;0.82;;;;;;;3.40;87.96;99653.41;1730761;80;21410;-75
2022/02/07 09:23:10;;;;;;;3.17;1.05;;;;;;;3.40;88.00;99661.93;1724654;81;21351;-75
2022/02/07 09:25:58;;;;;;;5.55;1.90;;;;;;;3.38;87.95;99656.41;1712461;81;21370;-75
2022/02/07 09:28:43;;;;;;;6.28;1.30;;;;;;;3.41;87.93;99669.17;1730689;81;20947;-75
2022/02/07 09:31:28;;;;;;;4.20;1.02;;;;;;;3.44;87.99;99675.13;1727329;81;20910;-74
2022/02/07 09:34:12;;;;;;;3.75;2.08;;;;;;;3.48;88.01;99672.98;1717146;82;20934;-76
2022/02/07 09:36:57;;;;;;;6.08;2.70;;;;;;;3.52;87.99;99691.72;1717132;81;20981;-75
2022/02/07 09:39:41;;;;;;;6.05;1.82;;;;;;;3.56;87.97;99689.16;1712480;81;21270;-75
2022/02/07 09:42:26;;;;;;;8.43;1.87;;;;;;;3.60;87.99;99692.12;1720521;80;21516;-76
2022/02/07 09:45:18;;;;;;;4.65;1.85;;;;;;;3.63;87.90;99694.67;1729180;81;21394;-75
2022/02/07 09:48:03;;;;;;;3.98;1.42;;;;;;;3.63;87.84;99704.05;1726763;82;21398;-75
2022/02/07 09:50:48;;;;;;;6.00;1.30;;;;;;;3.63;87.79;99701.06;1713328;82;20985;-75
2022/02/07 09:53:33;;;;;;;5.72;1.75;;;;;;;3.63;87.82;99713.84;1704401;81;20922;-75
2022/02/07 09:56:19;;;;;;;5.15;0.90;;;;;;;3.65;87.87;99709.97;1735320;81;20906;-75
2022/02/07 09:59:04;;;;;;;3.42;0.98;;;;;;;3.69;87.88;99721.05;1711403;81;20934;-75
2022/02/07 10:01:54;;;;;;;6.47;1.00;;;;;;;3.64;87.77;99718.50;1715028;82;20910;-79
2022/02/07 10:04:41;;;;;;;4.40;0.90;;;;;;;3.66;87.84;99727.86;1716770;81;20962;-75
2022/02/07 10:07:48;;;;;;;;;;;;;;;3.69;87.79;99729.56;1728526;82;20965;-75
2022/02/07 10:10:38;;;;;;;7.37;1.07;;;;;;;3.76;87.86;99731.68;1722682;82;20138;-75
2022/02/07 10:38:09;;;;;;;5.50;2.58;;;;;;;4.03;87.73;99763.58;1745361;81;20942;-75
2022/02/07 10:44:03;;;;;;;8.60;1.30;;;;;;;4.14;87.80;99775.05;1730001;82;20906;-75
2022/02/07 10:46:52;;;;;;;4.45;1.25;;;;;;;4.19;87.80;99783.10;1737878;81;20937;-75
2022/02/07 10:49:37;;;;;;;4.50;1.10;;;;;;;4.23;87.79;99773.70;1718336;82;21469;-76
2022/02/07 10:52:21;;;;;;;7.42;1.75;;;;;;;4.28;87.76;99784.77;1723360;82;20938;-76
2022/02/07 10:55:11;;;;;;;6.12;1.22;;;;;;;4.35;87.74;99775.36;1730969;81;21413;-75
2022/02/07 10:57:58;;;;;;;6.35;1.12;;;;;;;4.35;87.64;99782.61;1726263;81;20954;-75
2022/02/07 11:00:54;;;;;;;7.80;1.40;;;;;;;4.40;87.62;99791.55;1726228;82;20941;-76
2022/02/07 11:03:37;;;;;;;;;;;;;;;4.43;87.65;99796.66;1730781;81;20925;-75
2022/02/07 11:06:23;;;;;;;6.75;1.40;;;;;;;4.45;87.50;99794.95;1728731;82;20177;-76
2022/02/07 11:09:13;;;;;;;4.97;0.85;;;;;;;4.45;87.50;99792.39;1718839;81;20914;-76
2022/02/07 11:15:12;;;;;;;5.22;1.45;;;;;;;4.49;87.51;99808.16;1675075;84;21021;-75
2022/02/07 11:18:02;;;;;;;4.35;1.17;;;;;;;4.51;87.50;99809.85;1736378;80;20913;-76
2022/02/07 11:23:35;;;;;;;3.98;0.90;;;;;;;4.53;87.40;99814.53;1736311;80;20953;-75
2022/02/07 11:26:47;;;;;;;6.62;0.80;;;;;;;4.53;87.43;99821.36;1739296;80;20910;-75
2022/02/07 11:29:38;;;;;;;2.27;0.82;;;;;;;4.55;87.43;99820.50;1738138;80;21108;-75
2022/02/07 11:32:48;;;;;;;3.67;1.07;;;;;;;4.54;87.35;99823.92;1732407;80;21112;-75
2022/02/07 11:35:38;;;;;;;2.12;0.88;;;;;;;4.58;87.42;99828.59;1732904;80;21060;-75
2022/02/07 11:38:23;;;;;;;4.00;0.78;;;;;;;4.61;87.43;99842.23;1740750;80;20902;-75
2022/02/07 11:41:08;;;;;;;2.70;0.93;;;;;;;4.64;87.40;99837.11;1734440;80;20949;-75
2022/02/07 11:43:54;;;;;;;5.93;1.87;;;;;;;4.69;87.37;99838.77;1735047;80;20882;-75
2022/02/07 11:46:39;;;;;;;3.30;1.10;;;;;;;4.72;87.22;99852.83;1733698;80;21393;-75
2022/02/07 11:49:24;;;;;;;3.98;0.90;;;;;;;4.62;87.08;99869.55;1736011;80;20905;-75
2022/02/07 11:52:28;;;;;;;4.80;0.65;;;;;;;4.61;87.15;99863.15;1740809;80;20957;-75
2022/02/07 11:55:17;;;;;;;3.05;0.98;;;;;;;4.54;87.10;99869.15;1736934;80;20901;-75
2022/02/07 11:58:12;;;;;;;6.65;1.50;;;;;;;4.49;87.13;99879.41;1739940;80;20944;-75
2022/02/07 12:00:58;;;;;;;3.37;1.10;;;;;;;4.43;87.06;99887.09;1709083;82;20969;-75
2022/02/07 12:03:46;;;;;;;;;;;;;;;4.38;86.95;99895.64;1734116;82;21456;-76
2022/02/07 12:06:31;;;;;;;4.30;0.70;;;;;;;4.31;87.00;99896.09;1737083;82;20157;-77
2022/02/07 12:09:21;;;;;;;3.17;1.00;;;;;;;4.28;87.13;99917.84;1735712;82;20938;-78
2022/02/07 12:12:11;;;;;;;2.55;0.88;;;;;;;4.28;87.13;99899.50;1735600;80;20898;-77
2022/02/07 12:15:05;;;;;;;3.30;1.07;;;;;;;4.19;86.96;99924.25;1730493;80;21465;-79
2022/02/07 12:17:57;;;;;;;5.62;1.00;;;;;;;4.12;87.04;99932.39;1731464;81;20899;-79
2022/02/07 12:20:45;;;;;;;6.35;1.07;;;;;;;4.11;87.13;99935.80;1730576;81;20953;-81
2022/02/07 12:23:31;;;;;;;2.20;1.05;;;;;;;4.13;87.22;99934.52;1728916;81;20926;-80
2022/02/07 12:26:17;;;;;;;2.77;0.82;;;;;;;4.17;87.28;99943.45;1733801;80;20959;-79
2022/02/07 12:29:08;;;;;;;4.22;1.12;;;;;;;4.22;87.28;99942.16;1722560;81;20950;-79
2022/02/07 12:44:07;;;;;;;4.67;1.10;;;;;;;4.63;86.98;99983.06;1802011;77;29510;-79
2022/02/07 12:46:53;;;;;;;6.35;1.75;;;;;;;4.60;86.80;99989.47;1771175;79;20964;-79
2022/02/07 12:49:38;;;;;;;8.65;1.47;;;;;;;4.56;86.75;99996.73;1751165;80;21012;-79
2022/02/07 12:52:37;;;;;;;6.33;1.72;;;;;;;4.54;86.80;100007.39;1753521;80;21015;-79
2022/02/07 12:55:22;;;;;;;4.28;1.20;;;;;;;4.51;86.83;100021.05;1761792;80;21016;-79
2022/02/07 12:58:06;;;;;;;2.47;1.00;;;;;;;4.49;86.84;100038.12;1799280;77;21377;-79
2022/02/07 13:00:51;;;;;;;4.87;1.12;;;;;;;4.46;86.76;100033.43;1781108;79;21507;-79
2022/02/07 13:03:36;;;;;;;7.53;2.05;;;;;;;4.43;86.79;100035.98;1764470;80;20974;-79
2022/02/07 13:06:36;;;;;;;5.42;1.30;;;;;;;4.37;86.61;100034.28;1730254;81;20981;-79
2022/02/07 13:09:29;;;;;;;5.37;1.52;;;;;;;4.36;86.73;100044.09;1743773;80;21016;-79
2022/02/07 13:12:21;;;;;;;4.85;1.32;;;;;;;4.38;86.76;100051.34;1766142;79;21077;-79
2022/02/07 13:15:01;;;;;;;;;;;;;;;4.38;86.67;100044.09;1771956;79;21021;-79
2022/02/07 13:17:51;;;;;;;10.83;2.10;;;;;;;4.41;86.58;100059.02;1796882;78;20193;-79
2022/02/07 13:20:40;;;;;;;10.10;1.90;;;;;;;4.45;86.63;100067.13;1773253;80;21603;-80
2022/02/07 13:23:21;;;;;;;6.83;1.90;;;;;;;4.47;86.56;100070.55;1767083;79;21116;-79
2022/02/07 13:26:08;;;;;;;7.97;1.90;;;;;;;4.51;86.62;100076.52;1758904;79;21055;-79
2022/02/07 13:28:53;;;;;;;7.62;1.82;;;;;;;4.54;86.58;100079.94;1748020;79;21069;-79
2022/02/07 13:31:38;;;;;;;5.33;2.55;;;;;;;4.54;86.45;100078.66;1753784;80;21001;-79
2022/02/07 13:34:25;;;;;;;6.37;1.90;;;;;;;4.57;86.38;100079.08;1771767;79;21042;-78
2022/02/07 13:37:16;;;;;;;7.35;1.40;;;;;;;4.57;86.35;100076.52;1756271;80;21073;-78
2022/02/07 13:40:08;;;;;;;5.78;1.30;;;;;;;4.58;86.29;100088.47;1757995;79;21044;-77
2022/02/07 13:42:54;;;;;;;7.05;1.60;;;;;;;4.58;86.31;100091.03;1766188;79;20925;-76
2022/02/07 13:45:38;;;;;;;;;;;;;;;4.60;86.30;100101.70;1763503;79;21008;-76
2022/02/07 13:48:26;;;;;;;10.95;1.82;;;;;;;4.62;86.19;100100.42;1763427;79;20208;-77
2022/02/07 13:51:10;;;;;;;17.67;2.42;;;;;;;4.63;86.14;100106.82;1755403;79;20950;-77
2022/02/07 13:53:58;;;;;;;6.47;1.55;;;;;;;4.63;86.06;100110.66;1754906;80;20910;-77
2022/02/07 13:56:42;;;;;;;9.70;2.12;;;;;;;4.65;86.04;100108.09;1745698;79;20942;-77
2022/02/07 13:59:36;;;;;;;8.38;2.52;;;;;;;4.63;86.05;100127.30;1727605;80;20925;-77
2022/02/07 14:02:29;;;;;;;13.55;2.70;;;;;;;4.64;85.90;100132.00;1754095;80;21457;-77
2022/02/07 14:05:14;;;;;;;9.05;1.98;;;;;;;4.66;85.92;100148.22;1746798;79;20890;-77
2022/02/07 14:08:02;;;;;;;5.85;1.75;;;;;;;4.68;85.80;100147.76;1760567;79;21291;-77
2022/02/07 14:10:45;;;;;;;6.78;2.12;;;;;;;4.70;85.81;100159.28;1730134;80;21020;-77
2022/02/07 14:13:30;;;;;;;11.60;2.93;;;;;;;4.71;85.75;100161.84;1751072;80;21084;-78
2022/02/07 14:16:15;;;;;;;21.75;6.75;;;;;;;4.70;85.63;100165.27;1760694;79;21029;-77
2022/02/07 14:19:00;;;;;;;10.45;3.30;;;;;;;4.66;85.40;100166.14;1732940;80;21035;-77
2022/02/07 14:21:44;;;;;;;9.68;2.40;;;;;;;4.63;85.38;100168.27;1772104;79;21009;-77
2022/02/07 14:24:29;;;;;;;11.28;3.02;;;;;;;4.60;85.50;100183.63;1740368;79;21579;-77
2022/02/07 14:27:14;;;;;;;13.00;4.37;;;;;;;4.60;85.45;100195.16;1755763;81;21035;-77
2022/02/07 14:29:59;;;;;;;13.43;2.20;;;;;;;4.59;85.42;100196.01;1751730;79;21576;-77
2022/02/07 14:32:43;;;;;;;23.62;12.00;;;;;;;4.58;85.45;100210.94;1714153;81;21503;-77
2022/02/07 14:35:32;;;;;;;8.58;2.55;;;;;;;4.57;85.31;100207.10;1745440;80;20963;-77
2022/02/07 14:38:17;;;;;;;18.40;6.70;;;;;;;4.56;85.17;100204.11;1755556;79;20961;-77
2022/02/07 14:41:01;;;;;;;12.93;3.12;;;;;;;4.53;85.15;100227.14;1746928;79;20887;-77
2022/02/07 14:43:48;;;;;;;10.13;2.22;;;;;;;4.49;85.17;100240.36;1747319;80;21628;-76
2022/02/07 14:46:36;;;;;;;9.70;2.60;;;;;;;4.46;85.10;100253.16;1754346;79;21589;-77
2022/02/07 14:49:20;;;;;;;27.82;9.78;;;;;;;4.45;85.05;100251.45;1720780;79;21101;-77
2022/02/07 14:52:05;;;;;;;11.80;2.77;;;;;;;4.45;84.93;100260.41;1736614;80;21042;-75
2022/02/07 14:54:49;;;;;;;12.37;3.00;;;;;;;4.43;84.81;100263.81;1741528;81;21577;-78
2022/02/07 14:57:34;;;;;;;11.08;2.27;;;;;;;4.40;84.75;100272.34;1738450;80;21016;-75
2022/02/07 15:00:23;;;;;;;11.03;2.40;;;;;;;4.38;84.75;100281.71;1751735;80;21492;-75
2022/02/07 15:03:11;;;;;;;10.10;2.70;;;;;;;4.36;84.77;100274.87;1753988;79;21355;-74
2022/02/07 15:05:56;;;;;;;13.28;2.58;;;;;;;4.33;84.77;100282.12;1763407;79;20946;-75
2022/02/07 15:08:40;;;;;;;8.00;1.90;;;;;;;4.32;84.65;100295.77;1753875;80;20886;-75
2022/02/07 15:11:27;;;;;;;10.55;2.40;;;;;;;4.28;84.65;100305.55;1750414;79;20936;-75
2022/02/07 15:14:11;;;;;;;;;;;;;;;4.25;84.55;100308.95;1763201;79;21466;-75
2022/02/07 15:16:55;;;;;;;6.08;2.27;;;;;;;4.23;84.42;100307.23;1779614;79;20422;-74
2022/02/07 15:19:41;;;;;;;8.90;1.95;;;;;;;4.21;84.54;100315.33;1753195;79;21327;-72
2022/02/07 15:22:28;;;;;;;10.43;1.95;;;;;;;4.20;84.47;100321.30;1761664;79;20891;-71
2022/02/07 15:25:18;;;;;;;;;;;;;;;4.16;84.42;100318.32;1752702;80;22266;-71
2022/02/07 15:28:04;;;;;;;12.40;2.40;;;;;;;4.13;84.21;100328.11;1758054;79;20204;-71
2022/02/07 15:30:49;;;;;;;9.50;2.05;;;;;;;4.13;84.35;100337.08;1757895;80;20957;-71
2022/02/07 15:33:40;;;;;;;10.18;2.55;;;;;;;4.11;84.34;100338.77;1763069;79;21273;-71
2022/02/07 15:36:22;;;;;;;11.38;2.35;;;;;;;4.09;84.10;100340.88;1758791;79;21026;-71
2022/02/07 15:39:09;;;;;;;8.60;2.17;;;;;;;4.09;84.21;100356.23;1767027;78;20926;-71
2022/02/07 15:41:53;;;;;;;13.00;3.50;;;;;;;4.07;84.19;100361.34;1754156;80;21583;-71